createdAt,value
2023-02-21T00:00:42.432Z,39.45
2023-02-21T00:01:33.286Z,44.58
2023-02-21T00:02:23.383Z,39.28
2023-02-21T00:03:13.393Z,35.15
2023-02-21T00:04:03.204Z,38.78
2023-02-21T00:04:53.552Z,38.90
2023-02-21T00:05:43.724Z,38.13
2023-02-21T00:06:34.555Z,39.88
2023-02-21T00:07:24.849Z,36.13
2023-02-21T00:08:14.653Z,42.47
2023-02-21T00:09:05.023Z,39.05
2023-02-21T00:09:57.308Z,37.40
2023-02-21T00:10:47.122Z,43.35
2023-02-21T00:11:36.874Z,43.45
2023-02-21T00:12:27.058Z,48.88
2023-02-21T00:13:17.177Z,39.80
2023-02-21T00:14:07.097Z,39.07
2023-02-21T00:14:57.376Z,35.60
2023-02-21T00:15:47.133Z,44.90
2023-02-21T00:16:36.891Z,39.65
2023-02-21T00:17:26.572Z,42.08
2023-02-21T00:18:16.361Z,40.08
2023-02-21T00:19:06.161Z,38.83
2023-02-21T00:19:55.912Z,36.20
2023-02-21T00:20:46.198Z,38.33
2023-02-21T00:21:35.923Z,38.10
2023-02-21T00:22:25.421Z,34.90
2023-02-21T00:23:15.142Z,38.28
2023-02-21T00:24:05.479Z,36.92
2023-02-21T00:24:55.261Z,41.17
2023-02-21T00:25:45.575Z,41.75
2023-02-21T00:26:39.967Z,36.60
2023-02-21T00:27:30.194Z,41.20
2023-02-21T00:28:20.642Z,41.60
2023-02-21T00:29:10.347Z,41.67
2023-02-21T00:30:00.246Z,35.97
2023-02-21T00:30:50.272Z,38.47
2023-02-21T00:31:40.285Z,39.83
2023-02-21T00:32:30.385Z,46.25
2023-02-21T00:33:20.490Z,37.08
2023-02-21T00:34:10.711Z,40.47
2023-02-21T00:35:00.555Z,42.72
2023-02-21T00:35:50.435Z,39.67
2023-02-21T00:36:40.278Z,43.95
2023-02-21T00:37:29.881Z,35.90
2023-02-21T00:38:19.543Z,41.30
2023-02-21T00:39:09.231Z,36.20
2023-02-21T00:39:58.987Z,41.10
2023-02-21T00:40:48.713Z,45.25
2023-02-21T00:41:39.811Z,39.35
2023-02-21T00:42:29.541Z,40.92
2023-02-21T00:43:20.256Z,36.75
2023-02-21T00:44:10.364Z,37.78
2023-02-21T00:45:00.368Z,35.72
2023-02-21T00:45:50.124Z,36.05
2023-02-21T00:46:40.369Z,37.33
2023-02-21T00:47:30.044Z,34.63
2023-02-21T00:48:19.812Z,41.78
2023-02-21T00:49:09.556Z,40.35
2023-02-21T00:49:59.337Z,40.97
2023-02-21T00:50:49.342Z,41.92
2023-02-21T00:51:39.039Z,43.53
2023-02-21T00:52:29.328Z,35.30
2023-02-21T00:53:19.287Z,40.58
2023-02-21T00:54:09.522Z,45.50
2023-02-21T00:54:59.680Z,39.35
2023-02-21T00:55:49.376Z,41.50
2023-02-21T00:56:39.186Z,38.58
2023-02-21T00:57:29.022Z,39.75
2023-02-21T00:58:18.718Z,40.50
2023-02-21T00:59:08.445Z,40.15
2023-02-21T00:59:58.354Z,41.17
2023-02-21T01:00:48.388Z,40.17
2023-02-21T01:01:38.409Z,44.97
2023-02-21T01:02:28.964Z,40.80
2023-02-21T01:03:18.612Z,41.00
2023-02-21T01:04:08.385Z,44.90
2023-02-21T01:04:58.391Z,49.00
2023-02-21T01:05:48.451Z,41.55
2023-02-21T01:06:38.820Z,41.42
2023-02-21T01:07:28.651Z,41.22
2023-02-21T01:08:18.537Z,39.13
2023-02-21T01:09:08.617Z,41.65
2023-02-21T01:09:58.391Z,41.53
2023-02-21T01:10:48.134Z,43.28
2023-02-21T01:11:40.421Z,44.35
2023-02-21T01:12:30.201Z,40.20
2023-02-21T01:13:20.146Z,46.83
2023-02-21T01:14:10.433Z,46.30
2023-02-21T01:15:00.522Z,44.85
2023-02-21T01:15:50.402Z,44.22
2023-02-21T01:16:40.758Z,43.45
2023-02-21T01:17:30.421Z,41.08
2023-02-21T01:18:20.243Z,42.63
2023-02-21T01:19:10.437Z,40.55
2023-02-21T01:20:01.249Z,43.28
2023-02-21T01:20:51.122Z,45.27
2023-02-21T01:21:41.374Z,39.47
2023-02-21T01:22:31.117Z,43.72
2023-02-21T01:23:21.408Z,48.40
2023-02-21T01:24:11.184Z,42.30
2023-02-21T01:25:01.306Z,44.08
2023-02-21T01:25:51.194Z,46.30
2023-02-21T01:26:40.946Z,45.70
2023-02-21T01:27:30.675Z,39.75
2023-02-21T01:28:20.417Z,41.13
2023-02-21T01:29:10.180Z,49.03
2023-02-21T01:30:00.185Z,41.95
2023-02-21T01:30:50.137Z,43.50
2023-02-21T01:31:40.407Z,45.40
2023-02-21T01:32:30.563Z,49.42
2023-02-21T01:33:20.410Z,44.05
2023-02-21T01:34:10.546Z,45.08
2023-02-21T01:35:00.403Z,43.10
2023-02-21T01:35:50.159Z,42.40
2023-02-21T01:36:39.787Z,45.65
2023-02-21T01:37:29.634Z,46.67
2023-02-21T01:38:19.537Z,52.03
2023-02-21T01:39:09.305Z,49.88
2023-02-21T01:39:59.590Z,46.95
2023-02-21T01:40:49.857Z,47.50
2023-02-21T01:41:40.805Z,54.42
2023-02-21T01:42:30.733Z,48.15
2023-02-21T01:43:21.030Z,45.58
2023-02-21T01:44:53.277Z,47.30
2023-02-21T01:46:09.982Z,44.63
2023-02-21T01:46:59.838Z,49.23
2023-02-21T01:47:51.049Z,46.55
2023-02-21T01:48:43.893Z,47.75
2023-02-21T01:49:37.577Z,48.70
2023-02-21T01:50:45.581Z,53.10
2023-02-21T01:51:42.264Z,46.15
2023-02-21T01:52:32.419Z,53.28
2023-02-21T01:53:35.270Z,47.47
2023-02-21T01:54:26.970Z,44.58
2023-02-21T01:55:17.162Z,50.90
2023-02-21T01:56:07.400Z,47.73
2023-02-21T01:56:58.146Z,47.85
2023-02-21T01:57:49.322Z,51.42
2023-02-21T01:58:43.558Z,53.08
2023-02-21T01:59:35.383Z,48.05
2023-02-21T02:00:27.994Z,46.63
2023-02-21T02:01:17.949Z,48.75
2023-02-21T02:02:23.097Z,41.60
2023-02-21T02:03:18.361Z,52.58
2023-02-21T02:04:09.006Z,48.03
2023-02-21T02:05:00.504Z,43.80
2023-02-21T02:05:50.990Z,50.08
2023-02-21T02:06:41.516Z,47.75
2023-02-21T02:07:32.348Z,47.65
2023-02-21T02:08:22.420Z,45.80
2023-02-21T02:09:12.625Z,53.17
2023-02-21T02:10:02.386Z,46.92
2023-02-21T02:10:52.796Z,43.25
2023-02-21T02:12:09.647Z,50.40
2023-02-21T02:12:56.619Z,50.63
2023-02-21T02:13:54.757Z,49.70
2023-02-21T02:14:38.356Z,46.90
2023-02-21T02:15:22.169Z,46.15
2023-02-21T02:16:02.729Z,54.08
2023-02-21T02:16:43.494Z,50.10
2023-02-21T02:17:51.748Z,49.80
2023-02-21T02:18:38.837Z,53.80
2023-02-21T02:19:41.717Z,48.65
2023-02-21T02:20:53.977Z,47.15
2023-02-21T02:22:08.792Z,42.78
2023-02-21T02:22:56.717Z,51.47
2023-02-21T02:23:59.988Z,42.53
2023-02-21T02:25:09.700Z,46.28
2023-02-21T02:26:02.905Z,45.78
2023-02-21T02:26:56.922Z,50.47
2023-02-21T02:27:49.179Z,46.28
2023-02-21T02:28:26.342Z,52.50
2023-02-21T02:29:26.206Z,51.42
2023-02-21T02:30:28.911Z,44.22
2023-02-21T02:31:06.219Z,47.35
2023-02-21T02:32:15.182Z,52.93
2023-02-21T02:33:16.074Z,44.63
2023-02-21T02:34:31.232Z,50.38
2023-02-21T02:35:26.188Z,51.05
2023-02-21T02:36:06.116Z,45.33
2023-02-21T02:36:52.989Z,43.67
2023-02-21T02:37:54.826Z,52.30
2023-02-21T02:38:44.328Z,52.67
2023-02-21T02:39:44.883Z,52.35
2023-02-21T02:40:43.664Z,48.25
2023-02-21T02:41:29.071Z,47.37
2023-02-21T02:42:16.706Z,44.25
2023-02-21T02:43:18.115Z,53.55
2023-02-21T02:43:55.686Z,50.35
2023-02-21T02:44:39.890Z,45.67
2023-02-21T02:45:25.138Z,46.83
2023-02-21T02:46:02.316Z,48.17
2023-02-21T02:46:37.027Z,52.30
2023-02-21T02:47:14.062Z,49.15
2023-02-21T02:47:55.136Z,49.92
2023-02-21T02:48:33.397Z,50.50
2023-02-21T02:49:33.606Z,53.17
2023-02-21T02:50:09.525Z,49.53
2023-02-21T02:50:44.315Z,46.35
2023-02-21T02:51:17.066Z,50.20
2023-02-21T02:51:51.471Z,54.88
2023-02-21T02:52:22.800Z,54.67
2023-02-21T02:52:56.561Z,47.72
2023-02-21T02:53:29.990Z,51.30
2023-02-21T02:54:01.752Z,50.95
2023-02-21T02:54:33.178Z,51.03
2023-02-21T02:55:43.337Z,49.83
2023-02-21T02:56:17.044Z,45.42
2023-02-21T02:56:48.566Z,49.42
2023-02-21T02:57:19.922Z,51.72
2023-02-21T02:57:52.872Z,50.97
2023-02-21T02:58:28.376Z,53.75
2023-02-21T02:59:27.555Z,50.85
2023-02-21T02:59:58.934Z,48.22
2023-02-21T03:00:32.828Z,55.67
2023-02-21T03:01:41.295Z,54.97
2023-02-21T03:02:21.243Z,52.25
2023-02-21T03:03:44.791Z,55.20
2023-02-21T03:04:21.982Z,47.55
2023-02-21T03:05:16.460Z,52.80
2023-02-21T03:06:19.279Z,54.25
2023-02-21T03:06:55.204Z,50.55
2023-02-21T03:07:46.165Z,55.72
2023-02-21T03:08:32.559Z,51.33
2023-02-21T03:09:25.273Z,52.10
2023-02-21T03:10:21.307Z,55.73
2023-02-21T03:11:21.649Z,57.33
2023-02-21T03:12:39.172Z,49.33
2023-02-21T03:13:30.621Z,51.40
2023-02-21T03:14:15.857Z,57.45
2023-02-21T03:15:00.597Z,53.63
2023-02-21T03:15:59.200Z,54.25
2023-02-21T03:16:36.232Z,53.00
2023-02-21T03:17:15.044Z,60.95
2023-02-21T03:17:59.187Z,56.50
2023-02-21T03:18:38.509Z,59.13
2023-02-21T03:19:14.213Z,56.70
2023-02-21T03:19:48.661Z,59.38
2023-02-21T03:20:21.902Z,63.65
2023-02-21T03:21:01.550Z,60.30
2023-02-21T03:21:57.576Z,55.08
2023-02-21T03:22:31.045Z,55.55
2023-02-21T03:23:03.266Z,52.13
2023-02-21T03:23:35.875Z,60.40
2023-02-21T03:24:08.933Z,62.45
2023-02-21T03:24:44.474Z,62.23
2023-02-21T03:25:18.219Z,60.13
2023-02-21T03:25:52.027Z,61.92
2023-02-21T03:26:23.984Z,60.60
2023-02-21T03:27:04.735Z,60.72
2023-02-21T03:27:38.321Z,65.50
2023-02-21T03:28:09.856Z,68.25
2023-02-21T03:28:45.131Z,65.10
2023-02-21T03:29:17.658Z,63.58
2023-02-21T03:29:50.807Z,62.85
2023-02-21T03:30:23.167Z,57.90
2023-02-21T03:30:57.928Z,69.22
2023-02-21T03:31:35.722Z,58.20
2023-02-21T03:32:20.382Z,62.10
2023-02-21T03:32:53.582Z,64.28
2023-02-21T03:33:25.165Z,62.20
2023-02-21T03:33:56.889Z,58.75
2023-02-21T03:34:28.257Z,61.55
2023-02-21T03:34:59.899Z,68.03
2023-02-21T03:35:31.560Z,68.30
2023-02-21T03:36:06.954Z,61.53
2023-02-21T03:36:39.073Z,60.72
2023-02-21T03:37:21.207Z,68.38
2023-02-21T03:37:53.531Z,65.93
2023-02-21T03:38:28.407Z,64.80
2023-02-21T03:38:59.765Z,66.70
2023-02-21T03:39:31.184Z,64.35
2023-02-21T03:40:06.475Z,66.82
2023-02-21T03:40:37.916Z,68.75
2023-02-21T03:41:11.409Z,67.10
2023-02-21T03:41:42.838Z,63.80
2023-02-21T03:42:14.280Z,63.47
2023-02-21T03:42:45.698Z,70.60
2023-02-21T03:43:17.136Z,61.10
2023-02-21T03:43:48.595Z,63.65
2023-02-21T03:44:20.030Z,69.20
2023-02-21T03:44:51.473Z,67.47
2023-02-21T03:45:23.209Z,63.38
2023-02-21T03:45:54.561Z,67.25
2023-02-21T03:46:26.068Z,65.30
2023-02-21T03:46:57.500Z,63.03
2023-02-21T03:47:28.879Z,62.58
2023-02-21T03:48:00.774Z,65.40
2023-02-21T03:48:32.964Z,66.05
2023-02-21T03:49:04.454Z,63.70
2023-02-21T03:49:36.075Z,68.35
2023-02-21T03:50:07.773Z,62.05
2023-02-21T03:50:39.176Z,63.65
2023-02-21T03:51:10.582Z,68.10
2023-02-21T03:51:41.999Z,71.75
2023-02-21T03:52:14.392Z,72.67
2023-02-21T03:52:45.866Z,64.60
2023-02-21T03:53:17.326Z,65.45
2023-02-21T03:53:48.762Z,67.97
2023-02-21T03:54:20.316Z,69.05
2023-02-21T03:54:51.777Z,70.93
2023-02-21T03:55:23.250Z,73.70
2023-02-21T03:55:54.766Z,70.30
2023-02-21T03:56:33.391Z,68.40
2023-02-21T03:57:11.815Z,64.43
2023-02-21T03:57:43.465Z,68.30
2023-02-21T03:58:14.844Z,64.38
2023-02-21T03:58:46.178Z,69.78
2023-02-21T03:59:17.759Z,68.05
2023-02-21T03:59:49.216Z,71.15
2023-02-21T04:00:20.866Z,65.60
2023-02-21T04:00:53.855Z,70.03
2023-02-21T04:01:25.541Z,64.07
2023-02-21T04:01:56.948Z,65.05
2023-02-21T04:02:28.340Z,68.90
2023-02-21T04:02:59.862Z,66.80
2023-02-21T04:03:31.203Z,72.53
2023-02-21T04:04:02.703Z,69.97
2023-02-21T04:04:34.229Z,72.72
2023-02-21T04:05:06.158Z,66.30
2023-02-21T04:05:37.567Z,63.90
2023-02-21T04:06:08.982Z,69.30
2023-02-21T04:06:40.383Z,70.00
2023-02-21T04:07:12.095Z,66.82
2023-02-21T04:07:43.470Z,69.47
2023-02-21T04:08:15.017Z,68.47
2023-02-21T04:08:46.443Z,70.65
2023-02-21T04:09:17.976Z,67.72
2023-02-21T04:09:50.061Z,61.53
2023-02-21T04:10:21.435Z,68.82
2023-02-21T04:10:52.976Z,69.20
2023-02-21T04:11:24.584Z,70.03
2023-02-21T04:11:55.950Z,70.05
2023-02-21T04:12:27.374Z,69.97
2023-02-21T04:12:58.833Z,63.70
2023-02-21T04:13:30.241Z,63.13
2023-02-21T04:14:01.669Z,70.90
2023-02-21T04:14:33.402Z,72.63
2023-02-21T04:15:05.152Z,67.95
2023-02-21T04:15:36.623Z,68.95
2023-02-21T04:16:08.060Z,77.65
2023-02-21T04:16:39.581Z,69.28
2023-02-21T04:17:10.972Z,68.05
2023-02-21T04:17:42.435Z,67.15
2023-02-21T04:18:13.824Z,64.00
2023-02-21T04:18:45.291Z,71.70
2023-02-21T04:19:16.711Z,64.13
2023-02-21T04:19:48.171Z,74.35
2023-02-21T04:20:19.612Z,71.40
2023-02-21T04:20:51.200Z,71.05
2023-02-21T04:21:22.638Z,72.00
2023-02-21T04:21:54.081Z,73.13
2023-02-21T04:22:25.474Z,68.53
2023-02-21T04:23:03.135Z,70.90
2023-02-21T04:23:34.783Z,70.93
2023-02-21T04:24:06.225Z,71.10
2023-02-21T04:24:37.597Z,69.93
2023-02-21T04:25:09.067Z,72.65
2023-02-21T04:25:40.496Z,73.30
2023-02-21T04:26:11.991Z,67.45
2023-02-21T04:26:43.491Z,67.05
2023-02-21T04:27:16.199Z,70.25
2023-02-21T04:27:47.614Z,70.68
2023-02-21T04:28:19.093Z,68.60
2023-02-21T04:28:51.910Z,68.10
2023-02-21T04:29:23.328Z,64.00
2023-02-21T04:29:54.690Z,67.88
2023-02-21T04:30:26.123Z,64.95
2023-02-21T04:30:57.554Z,67.25
2023-02-21T04:31:28.989Z,66.50
2023-02-21T04:32:00.567Z,70.97
2023-02-21T04:32:32.087Z,71.38
2023-02-21T04:33:04.471Z,67.43
2023-02-21T04:33:35.923Z,64.38
2023-02-21T04:34:11.979Z,66.78
2023-02-21T04:34:43.655Z,63.00
2023-02-21T04:35:15.134Z,62.65
2023-02-21T04:35:46.565Z,69.43
2023-02-21T04:36:18.212Z,68.82
2023-02-21T04:36:49.695Z,63.40
2023-02-21T04:37:21.096Z,62.55
2023-02-21T04:37:52.515Z,66.15
2023-02-21T04:38:24.189Z,65.82
2023-02-21T04:38:55.916Z,73.05
2023-02-21T04:39:27.469Z,76.20
2023-02-21T04:39:59.089Z,71.07
2023-02-21T04:40:30.590Z,65.00
2023-02-21T04:41:02.055Z,65.68
2023-02-21T04:41:33.589Z,71.72
2023-02-21T04:42:05.029Z,65.68
2023-02-21T04:42:36.455Z,63.85
2023-02-21T04:43:08.143Z,68.60
2023-02-21T04:43:43.036Z,67.95
2023-02-21T04:44:14.554Z,71.28
2023-02-21T04:44:54.984Z,63.67
2023-02-21T04:45:30.988Z,66.47
2023-02-21T04:46:02.466Z,63.30
2023-02-21T04:46:34.492Z,71.40
2023-02-21T04:47:05.911Z,69.05
2023-02-21T04:47:37.328Z,67.60
2023-02-21T04:48:08.762Z,72.30
2023-02-21T04:48:40.189Z,74.30
2023-02-21T04:49:15.007Z,76.20
2023-02-21T04:49:51.518Z,63.63
2023-02-21T04:50:23.143Z,68.65
2023-02-21T04:50:57.281Z,70.13
2023-02-21T04:51:30.677Z,65.93
2023-02-21T04:52:02.104Z,69.97
2023-02-21T04:52:33.583Z,72.07
2023-02-21T04:53:04.990Z,70.57
2023-02-21T04:53:36.351Z,66.85
2023-02-21T04:54:07.917Z,68.15
2023-02-21T04:54:39.388Z,63.40
2023-02-21T04:55:10.735Z,71.22
2023-02-21T04:55:42.080Z,67.32
2023-02-21T04:56:13.585Z,62.60
2023-02-21T04:56:45.119Z,62.25
2023-02-21T04:57:17.119Z,72.05
2023-02-21T04:58:44.780Z,69.07
2023-02-21T04:59:53.599Z,67.60
2023-02-21T05:02:13.706Z,65.88
2023-02-21T05:03:40.852Z,71.05
2023-02-21T05:05:56.443Z,66.28
2023-02-21T05:07:09.216Z,60.23
2023-02-21T05:08:15.408Z,64.72
2023-02-21T05:09:14.942Z,62.60
2023-02-21T05:09:59.962Z,68.05
2023-02-21T05:11:02.633Z,65.95
2023-02-21T05:12:30.428Z,66.30
2023-02-21T05:14:00.790Z,65.35
2023-02-21T05:16:39.079Z,61.95
2023-02-21T05:17:49.733Z,59.67
2023-02-21T05:19:09.631Z,62.77
2023-02-21T05:20:41.611Z,56.47
2023-02-21T05:22:46.605Z,59.03
2023-02-21T05:24:08.205Z,62.92
2023-02-21T05:25:38.763Z,63.38
2023-02-21T05:26:45.733Z,63.08
2023-02-21T05:29:29.293Z,62.83
2023-02-21T05:31:07.357Z,65.65
2023-02-21T05:32:33.109Z,63.22
2023-02-21T05:33:32.739Z,63.17
2023-02-21T05:34:58.677Z,66.95
2023-02-21T05:36:45.024Z,68.18
2023-02-21T05:37:44.319Z,62.45
2023-02-21T05:40:43.155Z,68.82
2023-02-21T05:41:29.600Z,76.88
2023-02-21T05:42:55.502Z,65.95
2023-02-21T05:44:00.503Z,70.10
2023-02-21T05:44:53.081Z,67.85
2023-02-21T05:45:52.593Z,71.45
2023-02-21T05:47:03.248Z,75.03
2023-02-21T05:47:55.336Z,69.53
2023-02-21T05:49:44.229Z,69.07
2023-02-21T05:50:47.293Z,75.45
2023-02-21T05:51:46.245Z,69.22
2023-02-21T05:52:35.675Z,73.32
2023-02-21T05:53:33.796Z,78.15
2023-02-21T05:54:36.708Z,72.93
2023-02-21T05:55:45.191Z,70.88
2023-02-21T05:56:49.721Z,70.60
2023-02-21T05:57:42.102Z,68.18
2023-02-21T05:59:13.317Z,73.40
2023-02-21T06:02:11.935Z,69.93
2023-02-21T06:02:37.400Z,61.80
2023-02-21T06:03:47.875Z,73.53
2023-02-21T06:04:45.920Z,75.45
2023-02-21T06:06:44.666Z,73.53
2023-02-21T06:08:11.032Z,69.00
2023-02-21T06:09:22.950Z,74.85
2023-02-21T06:10:20.092Z,72.32
2023-02-21T06:12:24.706Z,74.30
2023-02-21T06:13:57.278Z,72.28
2023-02-21T06:17:49.778Z,67.53
2023-02-21T06:19:47.899Z,72.90
2023-02-21T06:20:45.721Z,68.35
2023-02-21T06:22:05.288Z,78.65
2023-02-21T06:23:19.710Z,80.22
2023-02-21T06:23:53.597Z,76.38
2023-02-21T06:24:24.989Z,77.68
2023-02-21T06:24:56.438Z,78.35
2023-02-21T06:25:27.862Z,77.72
2023-02-21T06:25:59.678Z,77.17
2023-02-21T06:26:31.117Z,86.10
2023-02-21T06:27:02.510Z,76.65
2023-02-21T06:27:33.862Z,83.85
2023-02-21T06:28:05.329Z,77.70
2023-02-21T06:28:36.876Z,82.72
2023-02-21T06:29:08.605Z,79.63
2023-02-21T06:29:40.008Z,83.32
2023-02-21T06:30:12.151Z,83.45
2023-02-21T06:30:43.763Z,87.68
2023-02-21T06:31:16.996Z,95.87
2023-02-21T06:31:48.782Z,86.38
2023-02-21T06:32:20.271Z,86.90
2023-02-21T06:32:51.875Z,85.70
2023-02-21T06:33:24.028Z,86.57
2023-02-21T06:33:55.408Z,86.82
2023-02-21T06:34:27.784Z,82.10
2023-02-21T06:34:59.229Z,81.80
2023-02-21T06:35:30.648Z,91.43
2023-02-21T06:36:06.485Z,78.30
2023-02-21T06:36:39.216Z,88.30
2023-02-21T06:37:10.755Z,82.55
2023-02-21T06:37:42.639Z,84.60
2023-02-21T06:38:14.064Z,84.65
2023-02-21T06:38:47.211Z,88.75
2023-02-21T06:39:18.688Z,87.20
2023-02-21T06:39:50.134Z,89.57
2023-02-21T06:40:21.593Z,81.53
2023-02-21T06:40:52.979Z,81.82
2023-02-21T06:41:30.157Z,84.97
2023-02-21T06:42:01.518Z,87.37
2023-02-21T06:42:32.934Z,85.25
2023-02-21T06:43:04.275Z,82.97
2023-02-21T06:43:39.325Z,88.30
2023-02-21T06:44:11.858Z,85.40
2023-02-21T06:44:44.825Z,89.82
2023-02-21T06:45:16.237Z,92.43
2023-02-21T06:45:47.644Z,88.00
2023-02-21T06:46:23.823Z,83.25
2023-02-21T06:46:55.225Z,82.65
2023-02-21T06:47:26.657Z,84.03
2023-02-21T06:47:58.108Z,92.82
2023-02-21T06:48:29.524Z,85.22
2023-02-21T06:49:00.884Z,83.70
2023-02-21T06:49:32.285Z,90.68
2023-02-21T06:50:04.051Z,82.88
2023-02-21T06:50:35.539Z,87.18
2023-02-21T06:51:10.133Z,92.00
2023-02-21T06:51:42.985Z,84.82
2023-02-21T06:52:14.682Z,90.70
2023-02-21T06:52:48.237Z,94.17
2023-02-21T06:53:19.661Z,100.82
2023-02-21T06:53:51.053Z,83.28
2023-02-21T06:54:22.541Z,94.60
2023-02-21T06:54:53.921Z,88.95
2023-02-21T06:55:25.916Z,87.53
2023-02-21T06:55:57.303Z,86.65
2023-02-21T06:56:28.965Z,89.47
2023-02-21T06:57:01.615Z,89.90
2023-02-21T06:57:33.272Z,87.55
2023-02-21T06:58:05.199Z,96.37
2023-02-21T06:58:36.999Z,87.03
2023-02-21T06:59:08.973Z,90.20
2023-02-21T06:59:41.161Z,92.95
2023-02-21T07:00:12.910Z,89.72
2023-02-21T07:00:44.316Z,98.60
2023-02-21T07:01:16.210Z,89.00
2023-02-21T07:01:47.769Z,94.20
2023-02-21T07:02:20.380Z,88.22
2023-02-21T07:02:52.001Z,97.68
2023-02-21T07:03:23.494Z,83.47
2023-02-21T07:03:56.373Z,93.57
2023-02-21T07:04:27.920Z,91.55
2023-02-21T07:04:59.332Z,92.70
2023-02-21T07:05:34.634Z,97.00
2023-02-21T07:06:06.213Z,85.65
2023-02-21T07:06:37.544Z,86.43
2023-02-21T07:07:08.873Z,87.95
2023-02-21T07:07:40.349Z,93.53
2023-02-21T07:08:11.692Z,89.28
2023-02-21T07:08:43.100Z,93.10
2023-02-21T07:09:14.602Z,88.88
2023-02-21T07:09:46.008Z,94.00
2023-02-21T07:10:17.859Z,91.85
2023-02-21T07:10:49.589Z,90.15
2023-02-21T07:11:21.013Z,98.25
2023-02-21T07:11:52.696Z,86.80
2023-02-21T07:12:24.121Z,90.90
2023-02-21T07:12:56.020Z,88.35
2023-02-21T07:13:27.593Z,90.05
2023-02-21T07:13:59.489Z,91.27
2023-02-21T07:14:31.031Z,86.07
2023-02-21T07:15:02.503Z,92.40
2023-02-21T07:15:33.849Z,91.90
2023-02-21T07:16:05.736Z,90.82
2023-02-21T07:16:37.226Z,92.88
2023-02-21T07:17:08.656Z,90.13
2023-02-21T07:17:40.079Z,91.70
2023-02-21T07:18:11.516Z,93.25
2023-02-21T07:18:42.915Z,94.70
2023-02-21T07:19:47.362Z,92.20
2023-02-21T07:20:18.853Z,94.57
2023-02-21T07:20:50.287Z,97.95
2023-02-21T07:21:22.201Z,95.70
2023-02-21T07:21:53.856Z,96.50
2023-02-21T07:22:26.279Z,93.20
2023-02-21T07:22:57.648Z,95.63
2023-02-21T07:23:29.157Z,92.47
2023-02-21T07:25:07.978Z,95.78
2023-02-21T07:25:49.582Z,82.43
2023-02-21T07:26:25.203Z,85.72
2023-02-21T07:27:07.260Z,90.13
2023-02-21T07:27:40.815Z,87.20
2023-02-21T07:28:16.390Z,98.50
2023-02-21T07:28:49.505Z,93.07
2023-02-21T07:29:22.735Z,96.97
2023-02-21T07:30:01.999Z,96.70
2023-02-21T07:30:34.311Z,94.15
2023-02-21T07:31:10.949Z,91.90
2023-02-21T07:31:42.565Z,90.87
2023-02-21T07:32:15.081Z,99.43
2023-02-21T07:32:48.791Z,97.70
2023-02-21T07:33:20.370Z,99.05
2023-02-21T07:33:55.080Z,92.82
2023-02-21T07:34:29.204Z,91.32
2023-02-21T07:35:02.049Z,94.60
2023-02-21T07:35:36.158Z,96.72
2023-02-21T07:36:12.034Z,95.85
2023-02-21T07:36:51.551Z,94.78
2023-02-21T07:37:32.942Z,95.37
2023-02-21T07:38:06.244Z,94.80
2023-02-21T07:38:38.067Z,93.07
2023-02-21T07:39:12.974Z,98.10
2023-02-21T07:39:51.713Z,95.60
2023-02-21T07:40:25.793Z,94.38
2023-02-21T07:41:10.032Z,96.80
2023-02-21T07:41:47.864Z,97.85
2023-02-21T07:42:19.531Z,97.18
2023-02-21T07:42:52.408Z,93.30
2023-02-21T07:43:33.208Z,89.53
2023-02-21T07:44:11.563Z,93.32
2023-02-21T07:44:50.211Z,87.63
2023-02-21T07:45:25.241Z,97.72
2023-02-21T07:45:57.926Z,104.47
2023-02-21T07:46:32.202Z,96.38
2023-02-21T07:47:10.462Z,103.35
2023-02-21T07:47:48.135Z,98.05
2023-02-21T07:48:20.075Z,93.20
2023-02-21T07:49:00.983Z,94.13
2023-02-21T07:49:41.057Z,100.93
2023-02-21T07:50:14.689Z,91.65
2023-02-21T07:50:51.500Z,94.53
2023-02-21T07:51:23.331Z,92.22
2023-02-21T07:51:57.321Z,100.88
2023-02-21T07:52:37.143Z,97.90
2023-02-21T07:53:11.617Z,95.38
2023-02-21T07:53:43.058Z,95.00
2023-02-21T07:54:18.298Z,100.00
2023-02-21T07:54:52.351Z,100.22
2023-02-21T07:55:25.622Z,108.20
2023-02-21T07:56:00.350Z,101.78
2023-02-21T07:56:34.431Z,91.60
2023-02-21T07:57:21.160Z,105.40
2023-02-21T07:57:56.318Z,97.75
2023-02-21T07:58:27.811Z,97.82
2023-02-21T07:59:02.681Z,100.72
2023-02-21T07:59:38.476Z,93.18
2023-02-21T08:00:10.541Z,104.25
2023-02-21T08:00:44.548Z,96.43
2023-02-21T08:01:23.581Z,100.17
2023-02-21T08:02:04.091Z,107.95
2023-02-21T08:02:36.738Z,100.97
2023-02-21T08:03:18.680Z,104.28
2023-02-21T08:03:52.456Z,98.57
2023-02-21T08:04:28.574Z,100.47
2023-02-21T08:05:00.158Z,98.22
2023-02-21T08:05:35.179Z,102.38
2023-02-21T08:06:11.096Z,95.65
2023-02-21T08:06:43.918Z,106.25
2023-02-21T08:07:19.697Z,98.77
2023-02-21T08:07:52.877Z,95.90
2023-02-21T08:08:28.669Z,105.75
2023-02-21T08:09:08.963Z,103.25
2023-02-21T08:09:44.137Z,97.13
2023-02-21T08:10:25.022Z,101.70
2023-02-21T08:11:03.118Z,106.03
2023-02-21T08:11:36.810Z,101.45
2023-02-21T08:12:11.014Z,106.38
2023-02-21T08:12:52.472Z,109.13
2023-02-21T08:13:28.218Z,104.10
2023-02-21T08:13:59.984Z,103.78
2023-02-21T08:14:34.833Z,100.88
2023-02-21T08:15:14.319Z,104.28
2023-02-21T08:15:48.978Z,100.13
2023-02-21T08:16:25.673Z,102.10
2023-02-21T08:16:58.681Z,95.57
2023-02-21T08:17:34.625Z,101.30
2023-02-21T08:18:30.097Z,98.97
2023-02-21T08:19:10.952Z,93.53
2023-02-21T08:19:46.419Z,99.43
2023-02-21T08:20:24.114Z,95.85
2023-02-21T08:21:05.818Z,104.40
2023-02-21T08:21:45.685Z,105.03
2023-02-21T08:22:19.664Z,97.65
2023-02-21T08:23:03.114Z,107.40
2023-02-21T08:23:40.528Z,101.07
2023-02-21T08:24:24.887Z,103.45
2023-02-21T08:25:05.322Z,102.43
2023-02-21T08:25:39.701Z,100.57
2023-02-21T08:26:16.030Z,91.90
2023-02-21T08:26:50.071Z,90.32
2023-02-21T08:27:32.855Z,100.25
2023-02-21T08:28:09.577Z,96.47
2023-02-21T08:28:44.729Z,100.97
2023-02-21T08:29:19.744Z,102.80
2023-02-21T08:29:54.305Z,100.20
2023-02-21T08:30:34.106Z,97.60
2023-02-21T08:31:11.862Z,100.60
2023-02-21T08:31:46.397Z,109.88
2023-02-21T08:32:25.175Z,101.90
2023-02-21T08:33:00.359Z,97.53
2023-02-21T08:33:34.047Z,97.88
2023-02-21T08:34:10.264Z,99.45
2023-02-21T08:34:50.945Z,102.50
2023-02-21T08:35:34.915Z,101.18
2023-02-21T08:36:11.444Z,99.72
2023-02-21T08:36:46.534Z,106.20
2023-02-21T08:37:22.842Z,110.22
2023-02-21T08:37:59.041Z,99.18
2023-02-21T08:38:33.850Z,110.43
2023-02-21T08:39:17.541Z,102.57
2023-02-21T08:39:58.321Z,100.85
2023-02-21T08:40:38.959Z,103.53
2023-02-21T08:41:14.042Z,103.30
2023-02-21T08:41:53.298Z,102.53
2023-02-21T08:42:34.107Z,101.97
2023-02-21T08:43:15.666Z,96.80
2023-02-21T08:43:51.847Z,95.35
2023-02-21T08:44:28.608Z,94.43
2023-02-21T08:45:07.250Z,96.67
2023-02-21T08:46:06.514Z,94.13
2023-02-21T08:46:43.834Z,96.20
2023-02-21T08:47:20.637Z,97.68
2023-02-21T08:47:55.365Z,99.38
2023-02-21T08:48:31.032Z,98.07
2023-02-21T08:49:08.868Z,101.28
2023-02-21T08:49:55.624Z,98.30
2023-02-21T08:50:40.521Z,87.45
2023-02-21T08:51:17.072Z,90.22
2023-02-21T08:51:57.568Z,91.70
2023-02-21T08:52:36.290Z,94.05
2023-02-21T08:53:17.137Z,90.72
2023-02-21T08:53:58.608Z,90.93
2023-02-21T08:54:36.182Z,93.82
2023-02-21T08:55:15.498Z,84.30
2023-02-21T08:56:00.932Z,88.53
2023-02-21T08:56:48.097Z,92.38
2023-02-21T08:57:39.813Z,85.90
2023-02-21T08:58:18.174Z,85.53
2023-02-21T08:59:12.296Z,98.30
2023-02-21T08:59:48.285Z,85.32
2023-02-21T09:00:25.112Z,92.28
2023-02-21T09:01:51.806Z,88.35
2023-02-21T09:02:39.110Z,88.53
2023-02-21T09:03:12.939Z,82.55
2023-02-21T09:04:02.462Z,83.63
2023-02-21T09:04:44.501Z,85.28
2023-02-21T09:05:35.797Z,86.68
2023-02-21T09:06:14.050Z,81.23
2023-02-21T09:06:56.679Z,77.82
2023-02-21T09:07:37.823Z,78.50
2023-02-21T09:08:13.096Z,74.38
2023-02-21T09:08:55.177Z,84.32
2023-02-21T09:09:32.994Z,76.20
2023-02-21T09:10:18.955Z,74.97
2023-02-21T09:11:04.911Z,75.75
2023-02-21T09:11:38.498Z,77.30
2023-02-21T09:12:14.495Z,80.93
2023-02-21T09:12:56.621Z,78.27
2023-02-21T09:13:38.160Z,80.28
2023-02-21T09:14:22.808Z,74.32
2023-02-21T09:15:06.939Z,74.82
2023-02-21T09:15:41.589Z,71.78
2023-02-21T09:16:20.529Z,68.40
2023-02-21T09:17:07.866Z,71.88
2023-02-21T09:17:41.610Z,73.53
2023-02-21T09:18:32.292Z,73.68
2023-02-21T09:19:06.933Z,70.82